createdAt,value
2022-11-05T00:00:34.865Z,80.93
2022-11-05T00:03:27.987Z,80.43
2022-11-05T00:06:15.348Z,80.43
2022-11-05T00:09:02.569Z,79.64
2022-11-05T00:11:49.790Z,79.81
2022-11-05T00:14:37.102Z,79.78
2022-11-05T00:17:05.602Z,79.55
2022-11-05T00:19:34.394Z,79.03
2022-11-05T00:22:21.408Z,78.76
2022-11-05T00:25:08.624Z,78.83
2022-11-05T00:27:37.003Z,78.61
2022-11-05T00:30:07.430Z,78.48
2022-11-05T00:32:38.066Z,78.35
2022-11-05T00:35:07.365Z,78.51
2022-11-05T00:37:36.357Z,78.70
2022-11-05T00:40:05.308Z,78.26
2022-11-05T00:42:52.267Z,78.08
2022-11-05T00:45:21.365Z,78.32
2022-11-05T00:48:08.381Z,77.96
2022-11-05T00:50:37.271Z,77.40
2022-11-05T00:53:05.652Z,77.88
2022-11-05T00:55:35.877Z,78.11
2022-11-05T00:58:06.406Z,78.21
2022-11-05T01:00:35.875Z,77.71
2022-11-05T01:03:05.625Z,77.90
2022-11-05T01:05:35.127Z,78.28
2022-11-05T01:08:03.815Z,77.01
2022-11-05T01:10:32.500Z,76.82
2022-11-05T01:13:00.885Z,77.06
2022-11-05T01:15:29.464Z,77.77
2022-11-05T01:17:58.153Z,78.00
2022-11-05T01:20:27.115Z,78.17
2022-11-05T01:22:55.628Z,77.86
2022-11-05T01:25:24.211Z,77.75
2022-11-05T01:27:52.489Z,79.19
2022-11-05T01:30:21.176Z,79.39
2022-11-05T01:32:49.863Z,79.49
2022-11-05T01:35:18.755Z,79.64
2022-11-05T01:37:47.441Z,79.22
2022-11-05T01:40:17.509Z,78.72
2022-11-05T01:42:45.940Z,79.39
2022-11-05T01:45:14.325Z,80.02
2022-11-05T01:47:56.588Z,79.85
2022-11-05T01:50:27.980Z,79.48
2022-11-05T01:53:02.871Z,79.23
2022-11-05T01:55:33.760Z,79.92
2022-11-05T01:58:03.458Z,80.21
2022-11-05T02:00:31.940Z,80.25
2022-11-05T02:03:00.561Z,80.39
2022-11-05T02:05:29.194Z,80.67
2022-11-05T02:07:57.998Z,80.38
2022-11-05T02:10:26.583Z,80.73
2022-11-05T02:12:55.373Z,80.75
2022-11-05T02:15:37.064Z,80.27
2022-11-05T02:18:23.985Z,79.92
2022-11-05T02:20:55.125Z,79.73
2022-11-05T02:23:26.747Z,80.12
2022-11-05T02:25:58.230Z,80.07
2022-11-05T02:28:45.043Z,80.04
2022-11-05T02:31:28.285Z,80.00
2022-11-05T02:34:03.613Z,80.69
2022-11-05T02:36:32.611Z,81.04
2022-11-05T02:39:12.661Z,80.51
2022-11-05T02:41:48.925Z,80.35
2022-11-05T02:44:17.100Z,79.54
2022-11-05T02:46:48.757Z,79.15
2022-11-05T02:49:27.991Z,79.25
2022-11-05T02:52:02.616Z,79.90
2022-11-05T02:54:37.039Z,79.15
2022-11-05T02:57:06.136Z,78.72
2022-11-05T02:59:34.617Z,78.80
2022-11-05T03:02:04.194Z,78.66
2022-11-05T03:04:33.118Z,79.00
2022-11-05T03:07:07.641Z,78.94
2022-11-05T03:09:38.989Z,79.15
2022-11-05T03:12:07.164Z,79.26
2022-11-05T03:14:35.646Z,79.52
2022-11-05T03:17:07.301Z,79.57
2022-11-05T03:20:01.807Z,80.03
2022-11-05T03:22:35.396Z,80.18
2022-11-05T03:25:08.999Z,80.23
2022-11-05T03:27:39.631Z,80.31
2022-11-05T03:30:09.594Z,80.69
2022-11-05T03:32:42.594Z,81.06
2022-11-05T03:35:16.751Z,81.00
2022-11-05T03:37:47.587Z,80.69
2022-11-05T03:40:17.503Z,80.74
2022-11-05T03:42:50.179Z,80.58
2022-11-05T03:45:21.020Z,80.60
2022-11-05T03:47:52.218Z,79.75
2022-11-05T03:50:25.463Z,79.80
2022-11-05T03:52:56.297Z,80.09
2022-11-05T03:55:28.467Z,81.21
2022-11-05T03:57:58.563Z,81.52
2022-11-05T04:00:27.070Z,81.13
2022-11-05T04:02:55.882Z,80.66
2022-11-05T04:05:24.242Z,80.51
2022-11-05T04:08:14.407Z,80.34
2022-11-05T04:11:02.160Z,80.71
2022-11-05T04:13:31.053Z,80.78
2022-11-05T04:16:18.275Z,80.87
2022-11-05T04:18:47.066Z,81.10
2022-11-05T04:21:34.081Z,80.95
2022-11-05T04:24:08.618Z,81.02
2022-11-05T04:26:39.036Z,80.98
2022-11-05T04:29:26.460Z,81.11
2022-11-05T04:31:55.048Z,81.43
2022-11-05T04:34:23.831Z,81.67
2022-11-05T04:36:53.438Z,82.59
2022-11-05T04:39:21.989Z,82.10
2022-11-05T04:41:50.710Z,81.69
2022-11-05T04:44:19.090Z,81.53
2022-11-05T04:46:47.369Z,81.77
2022-11-05T04:49:16.262Z,81.59
2022-11-05T04:51:44.744Z,81.82
2022-11-05T04:54:13.222Z,82.05
2022-11-05T04:56:42.011Z,81.96
2022-11-05T04:59:10.554Z,82.14
2022-11-05T05:01:39.066Z,82.11
2022-11-05T05:04:07.662Z,82.54
2022-11-05T05:06:36.861Z,82.56
2022-11-05T05:09:05.343Z,82.33
2022-11-05T05:11:33.752Z,82.44
2022-11-05T05:14:02.206Z,82.32
2022-11-05T05:16:30.788Z,82.44
2022-11-05T05:18:59.376Z,82.32
2022-11-05T05:21:40.676Z,82.32
2022-11-05T05:24:13.849Z,82.04
2022-11-05T05:26:44.179Z,81.95
2022-11-05T05:29:13.066Z,82.09
2022-11-05T05:31:41.444Z,82.69
2022-11-05T05:34:14.296Z,82.68
2022-11-05T05:36:42.914Z,82.44
2022-11-05T05:39:11.506Z,82.60
2022-11-05T05:41:39.776Z,82.40
2022-11-05T05:44:08.363Z,82.28
2022-11-05T05:46:36.846Z,82.37
2022-11-05T05:49:11.070Z,82.38
2022-11-05T05:51:40.973Z,83.33
2022-11-05T05:54:10.789Z,83.62
2022-11-05T05:56:39.270Z,83.70
2022-11-05T05:59:08.272Z,83.68
2022-11-05T06:01:37.090Z,83.30
2022-11-05T06:04:05.738Z,83.50
2022-11-05T06:06:34.375Z,83.69
2022-11-05T06:09:02.584Z,83.20
2022-11-05T06:11:31.299Z,83.32
2022-11-05T06:13:59.704Z,83.59
2022-11-05T06:16:28.866Z,83.25
2022-11-05T06:18:57.556Z,82.88
2022-11-05T06:21:26.138Z,82.35
2022-11-05T06:23:54.517Z,82.34
2022-11-05T06:26:23.105Z,82.25
2022-11-05T06:28:52.059Z,82.07
2022-11-05T06:31:21.705Z,82.31
2022-11-05T06:33:50.287Z,81.95
2022-11-05T06:36:19.590Z,81.87
2022-11-05T06:38:47.971Z,81.73
2022-11-05T06:41:16.246Z,81.39
2022-11-05T06:43:44.905Z,81.33
2022-11-05T06:46:13.415Z,81.03
2022-11-05T06:48:41.692Z,80.91
2022-11-05T06:51:10.278Z,80.47
2022-11-05T06:53:38.861Z,80.26
2022-11-05T06:56:07.915Z,80.02
2022-11-05T06:58:36.644Z,79.78
2022-11-05T07:01:08.121Z,79.51
2022-11-05T07:03:37.193Z,79.18
2022-11-05T07:06:06.777Z,78.86
2022-11-05T07:08:35.903Z,78.53
2022-11-05T07:11:04.584Z,78.33
2022-11-05T07:13:33.272Z,78.17
2022-11-05T07:16:01.755Z,78.18
2022-11-05T07:18:30.136Z,77.84
2022-11-05T07:20:59.727Z,77.70
2022-11-05T07:23:28.239Z,77.08
2022-11-05T07:25:56.503Z,77.08
2022-11-05T07:28:24.882Z,76.78
2022-11-05T07:30:54.560Z,76.21
2022-11-05T07:33:23.076Z,75.75
2022-11-05T07:35:51.456Z,75.39
2022-11-05T07:38:20.040Z,74.51
2022-11-05T07:40:48.481Z,73.91
2022-11-05T07:43:16.918Z,73.18
2022-11-05T07:45:45.693Z,72.68
2022-11-05T07:48:14.072Z,71.87
2022-11-05T07:50:42.352Z,71.41
2022-11-05T07:53:14.732Z,71.25
2022-11-05T07:55:44.330Z,70.59
2022-11-05T07:58:12.987Z,70.47
2022-11-05T08:00:41.539Z,70.16
2022-11-05T08:03:17.359Z,69.92
2022-11-05T08:05:48.004Z,69.23
2022-11-05T08:08:17.904Z,69.31
2022-11-05T08:10:46.704Z,69.05
2022-11-05T08:13:15.553Z,69.16
2022-11-05T08:15:44.684Z,68.33
2022-11-05T08:18:14.498Z,68.18
2022-11-05T08:20:43.390Z,67.81
2022-11-05T08:23:12.254Z,66.95
2022-11-05T08:25:41.589Z,66.83
2022-11-05T08:28:13.776Z,66.37
2022-11-05T08:30:42.660Z,66.26
2022-11-05T08:33:12.528Z,65.74
2022-11-05T08:35:41.351Z,64.94
2022-11-05T08:38:11.059Z,64.17
2022-11-05T08:40:40.156Z,64.72
2022-11-05T08:43:10.293Z,64.07
2022-11-05T08:45:38.964Z,63.22
2022-11-05T08:48:08.572Z,62.54
2022-11-05T08:50:37.669Z,61.74
2022-11-05T08:53:06.458Z,61.82
2022-11-05T08:55:35.116Z,61.46
2022-11-05T08:58:04.859Z,60.67
2022-11-05T09:00:35.182Z,59.10
2022-11-05T09:03:04.944Z,57.56
2022-11-05T09:05:38.304Z,57.14
2022-11-05T09:08:07.770Z,56.37
2022-11-05T09:10:36.486Z,56.16
2022-11-05T09:13:04.813Z,56.23
2022-11-05T09:15:34.065Z,55.65
2022-11-05T09:18:08.626Z,55.42
2022-11-05T09:20:37.074Z,55.21
2022-11-05T09:23:05.452Z,55.29
2022-11-05T09:25:34.139Z,54.76
2022-11-05T09:28:12.280Z,53.77
2022-11-05T09:30:44.026Z,52.39
2022-11-05T09:33:13.245Z,51.55
2022-11-05T09:35:42.199Z,50.86
2022-11-05T09:38:11.092Z,50.77
2022-11-05T09:40:57.802Z,51.63
2022-11-05T09:43:46.355Z,51.36
2022-11-05T09:46:23.953Z,50.05
2022-11-05T09:48:54.636Z,49.40
2022-11-05T09:51:24.284Z,48.85
2022-11-05T09:53:54.112Z,47.76
2022-11-05T09:56:27.516Z,48.16
2022-11-05T09:59:01.213Z,47.55
2022-11-05T10:01:32.768Z,46.35
2022-11-05T10:04:03.131Z,45.96
2022-11-05T10:06:31.881Z,44.77
2022-11-05T10:09:02.983Z,43.62
2022-11-05T10:11:38.268Z,43.57
2022-11-05T10:14:10.948Z,43.55
2022-11-05T10:16:44.141Z,42.39
2022-11-05T10:19:22.352Z,42.48
2022-11-05T10:22:09.912Z,41.93
2022-11-05T10:24:41.099Z,41.23
2022-11-05T10:27:15.042Z,40.96
2022-11-05T10:29:43.725Z,40.60
2022-11-05T10:32:17.842Z,41.02
2022-11-05T10:34:46.425Z,40.59
2022-11-05T10:37:14.908Z,38.59
2022-11-05T10:39:43.596Z,37.79
2022-11-05T10:42:11.976Z,37.26
2022-11-05T10:44:49.491Z,37.17
2022-11-05T10:47:36.795Z,36.42
2022-11-05T10:50:10.015Z,35.67
2022-11-05T10:52:40.462Z,35.15
2022-11-05T10:55:21.903Z,35.32
2022-11-05T10:57:50.693Z,35.38
2022-11-05T11:00:23.684Z,34.21
2022-11-05T11:02:54.108Z,33.76
2022-11-05T11:05:28.633Z,33.65
2022-11-05T11:08:02.007Z,33.33
2022-11-05T11:10:33.074Z,33.12
2022-11-05T11:13:01.456Z,32.43
2022-11-05T11:15:35.466Z,31.44
2022-11-05T11:18:22.791Z,31.06
2022-11-05T11:20:51.683Z,30.35
2022-11-05T11:23:20.166Z,30.43
2022-11-05T11:25:51.618Z,30.65
2022-11-05T11:28:40.379Z,30.12
2022-11-05T11:31:08.858Z,29.76
2022-11-05T11:33:38.379Z,29.72
2022-11-05T11:36:07.007Z,29.63
2022-11-05T11:38:37.142Z,29.36
2022-11-05T11:41:16.996Z,28.60
2022-11-05T11:43:46.530Z,28.70
2022-11-05T11:46:16.753Z,28.15
2022-11-05T11:48:47.766Z,27.95
2022-11-05T11:51:30.715Z,27.55
2022-11-05T11:53:59.861Z,27.73
2022-11-05T11:56:29.223Z,27.93
2022-11-05T11:58:58.314Z,27.54
2022-11-05T12:01:32.902Z,27.39
2022-11-05T12:04:21.703Z,27.29
2022-11-05T12:06:59.499Z,27.59
2022-11-05T12:09:46.558Z,27.46
2022-11-05T12:12:16.331Z,27.27
2022-11-05T12:15:00.992Z,27.28
2022-11-05T12:17:48.421Z,27.56
2022-11-05T12:20:16.984Z,27.81
2022-11-05T12:23:06.172Z,27.77
2022-11-05T12:25:40.491Z,27.67
2022-11-05T12:28:08.872Z,27.60
2022-11-05T12:31:03.568Z,28.00
2022-11-05T12:33:38.656Z,28.18
2022-11-05T12:36:07.393Z,28.68
2022-11-05T12:38:44.684Z,28.46
2022-11-05T12:41:28.217Z,28.51
2022-11-05T12:44:06.228Z,28.74
2022-11-05T12:46:44.127Z,29.11
2022-11-05T12:49:31.151Z,28.90
2022-11-05T12:52:23.384Z,28.67
2022-11-05T12:55:24.123Z,28.86
2022-11-05T12:57:54.263Z,29.34
2022-11-05T13:00:24.160Z,29.97
2022-11-05T13:03:05.232Z,30.56
2022-11-05T13:05:39.557Z,31.04
2022-11-05T13:08:10.906Z,31.30
2022-11-05T13:10:51.997Z,31.49
2022-11-05T13:13:29.581Z,31.46
2022-11-05T13:16:24.691Z,32.02
2022-11-05T13:18:56.549Z,32.58
2022-11-05T13:21:26.477Z,33.03
2022-11-05T13:24:33.450Z,33.37
2022-11-05T13:27:25.074Z,34.08
2022-11-05T13:29:57.125Z,34.30
2022-11-05T13:32:31.562Z,34.84
2022-11-05T13:35:02.047Z,35.02
2022-11-05T13:37:59.043Z,35.27
2022-11-05T13:40:42.170Z,35.91
2022-11-05T13:43:30.815Z,36.12
2022-11-05T13:46:18.149Z,36.56
2022-11-05T13:48:46.734Z,37.79
2022-11-05T13:51:27.401Z,38.61
2022-11-05T13:53:55.887Z,39.83
2022-11-05T13:56:39.829Z,41.14
2022-11-05T13:59:23.878Z,42.31
2022-11-05T14:01:57.333Z,43.34
2022-11-05T14:04:25.965Z,44.14
2022-11-05T14:07:04.888Z,44.80
2022-11-05T14:09:34.754Z,46.18
2022-11-05T14:12:05.264Z,47.41
2022-11-05T14:14:42.419Z,48.25
2022-11-05T14:17:11.152Z,49.36
2022-11-05T14:19:59.761Z,50.34
2022-11-05T14:22:31.463Z,50.75
2022-11-05T14:25:00.618Z,52.16
2022-11-05T14:27:28.791Z,53.15
2022-11-05T14:29:57.478Z,53.39
2022-11-05T14:32:27.846Z,54.19
2022-11-05T14:35:19.123Z,55.40
2022-11-05T14:37:47.810Z,56.04
2022-11-05T14:40:22.129Z,57.43
2022-11-05T14:42:55.833Z,58.10
2022-11-05T14:45:30.055Z,58.38
2022-11-05T14:48:00.632Z,59.36
2022-11-05T14:50:34.916Z,60.52
2022-11-05T14:53:13.036Z,60.67
2022-11-05T14:55:42.840Z,60.95
2022-11-05T14:58:26.870Z,61.83
2022-11-05T15:00:55.897Z,62.45
2022-11-05T15:03:35.133Z,63.05
2022-11-05T15:06:03.482Z,63.77
2022-11-05T15:08:51.930Z,64.20
2022-11-05T15:11:20.109Z,64.00
2022-11-05T15:13:54.935Z,65.51
2022-11-05T15:16:23.211Z,65.73
2022-11-05T15:18:53.832Z,66.60
2022-11-05T15:21:22.530Z,66.75
2022-11-05T15:23:54.233Z,66.75
2022-11-05T15:26:26.560Z,67.02
2022-11-05T15:28:55.758Z,67.56
2022-11-05T15:31:45.646Z,67.96
2022-11-05T15:34:18.871Z,68.49
2022-11-05T15:36:51.968Z,68.75
2022-11-05T15:39:30.211Z,69.13
2022-11-05T15:42:01.422Z,68.38
2022-11-05T15:44:31.327Z,69.52
2022-11-05T15:47:06.847Z,70.03
2022-11-05T15:49:35.843Z,69.49
2022-11-05T15:52:05.059Z,69.28
2022-11-05T15:54:33.644Z,70.05
2022-11-05T15:57:02.656Z,70.27
2022-11-05T15:59:31.471Z,70.55
2022-11-05T16:02:19.511Z,70.31
2022-11-05T16:04:48.854Z,70.97
2022-11-05T16:07:17.744Z,71.00
2022-11-05T16:09:59.852Z,71.88
2022-11-05T16:12:33.052Z,72.77
2022-11-05T16:15:10.439Z,72.20
2022-11-05T16:17:46.600Z,72.94
2022-11-05T16:20:34.920Z,72.95
2022-11-05T16:23:07.416Z,72.45
2022-11-05T16:25:36.532Z,73.17
2022-11-05T16:28:06.738Z,73.33
2022-11-05T16:30:35.017Z,73.09
2022-11-05T16:33:04.819Z,74.65
2022-11-05T16:35:33.820Z,74.69
2022-11-05T16:38:03.240Z,74.71
2022-11-05T16:40:31.504Z,74.76
2022-11-05T16:43:09.711Z,75.31
2022-11-05T16:45:41.454Z,75.14
2022-11-05T16:48:12.030Z,75.12
2022-11-05T16:50:40.995Z,76.23
2022-11-05T16:53:09.682Z,76.48
2022-11-05T16:55:39.344Z,75.91
2022-11-05T16:58:14.890Z,75.64
2022-11-05T17:00:43.319Z,76.21
2022-11-05T17:03:12.010Z,76.76
2022-11-05T17:05:40.448Z,76.76
2022-11-05T17:08:09.385Z,77.15
2022-11-05T17:10:38.171Z,77.58
2022-11-05T17:13:06.550Z,77.91
2022-11-05T17:15:37.802Z,78.17
2022-11-05T17:18:06.183Z,79.00
2022-11-05T17:20:40.726Z,79.04
2022-11-05T17:23:12.188Z,79.00
2022-11-05T17:25:41.302Z,79.43
2022-11-05T17:28:10.219Z,79.55
2022-11-05T17:30:41.473Z,80.19
2022-11-05T17:33:11.489Z,80.18
2022-11-05T17:35:40.911Z,81.12
2022-11-05T17:38:10.483Z,81.51
2022-11-05T17:40:39.481Z,81.99
2022-11-05T17:43:07.807Z,80.77
2022-11-05T17:45:41.469Z,81.66
2022-11-05T17:48:10.696Z,82.03
2022-11-05T17:50:42.823Z,81.96
2022-11-05T17:53:11.975Z,82.15
2022-11-05T17:55:41.893Z,81.75
2022-11-05T17:58:10.972Z,81.64
2022-11-05T18:00:40.078Z,82.22
2022-11-05T18:03:10.076Z,82.27
2022-11-05T18:05:40.212Z,82.47
2022-11-05T18:08:09.203Z,82.98
2022-11-05T18:10:38.104Z,82.36
2022-11-05T18:13:06.882Z,82.80
2022-11-05T18:15:36.589Z,82.69
2022-11-05T18:18:04.972Z,82.86
2022-11-05T18:20:33.658Z,82.98
2022-11-05T18:23:02.552Z,82.70
2022-11-05T18:25:31.137Z,82.81
2022-11-05T18:27:59.620Z,82.38
2022-11-05T18:30:27.996Z,82.26
2022-11-05T18:32:56.786Z,82.40
2022-11-05T18:35:25.165Z,82.79
2022-11-05T18:37:53.544Z,82.49
2022-11-05T18:40:22.230Z,82.71
2022-11-05T18:42:50.610Z,82.90
2022-11-05T18:45:18.888Z,82.85
2022-11-05T18:47:47.883Z,82.90
2022-11-05T18:50:16.568Z,83.12
2022-11-05T18:52:44.949Z,82.62
2022-11-05T18:55:13.738Z,82.97
2022-11-05T18:57:42.184Z,82.96
2022-11-05T19:00:10.906Z,82.97
2022-11-05T19:02:39.511Z,82.93
2022-11-05T19:05:28.051Z,82.93
2022-11-05T19:07:57.550Z,83.03
2022-11-05T19:10:26.007Z,82.63
2022-11-05T19:12:54.726Z,82.76
2022-11-05T19:15:23.200Z,82.72
2022-11-05T19:17:51.786Z,82.77
2022-11-05T19:20:20.165Z,82.81
2022-11-05T19:22:48.852Z,83.08
2022-11-05T19:25:17.539Z,82.76
2022-11-05T19:27:45.919Z,82.85
2022-11-05T19:30:14.711Z,83.07
2022-11-05T19:32:42.991Z,83.23
2022-11-05T19:35:11.469Z,83.10
2022-11-05T19:37:40.259Z,83.06
2022-11-05T19:40:09.150Z,83.59
2022-11-05T19:42:37.425Z,83.74
2022-11-05T19:45:30.401Z,83.34
2022-11-05T19:47:55.075Z,83.13
2022-11-05T19:50:23.879Z,83.34
2022-11-05T19:52:52.245Z,83.35
2022-11-05T19:55:20.932Z,83.26
2022-11-05T19:57:49.415Z,83.06
2022-11-05T20:00:17.996Z,83.36
2022-11-05T20:02:46.923Z,83.17
2022-11-05T20:05:15.783Z,83.94
2022-11-05T20:07:49.663Z,83.45
2022-11-05T20:10:21.629Z,83.77
2022-11-05T20:12:50.041Z,83.72
2022-11-05T20:15:19.951Z,83.99
2022-11-05T20:17:50.183Z,83.75
2022-11-05T20:20:19.063Z,84.08
2022-11-05T20:22:47.344Z,84.04
2022-11-05T20:25:16.233Z,83.75
2022-11-05T20:27:44.717Z,84.17
2022-11-05T20:30:13.299Z,84.39
2022-11-05T20:32:41.678Z,84.53
2022-11-05T20:35:10.374Z,84.26
2022-11-05T20:37:38.846Z,84.64
2022-11-05T20:40:07.636Z,84.81
2022-11-05T20:42:36.427Z,84.87
2022-11-05T20:45:05.010Z,85.10
2022-11-05T20:47:33.710Z,84.72
2022-11-05T20:50:04.227Z,84.64
2022-11-05T20:52:33.634Z,84.93
2022-11-05T20:55:02.626Z,84.93
2022-11-05T20:57:31.005Z,84.88
2022-11-05T20:59:59.588Z,84.81
2022-11-05T21:02:28.553Z,84.84
2022-11-05T21:04:56.953Z,84.70
2022-11-05T21:07:25.342Z,84.66
2022-11-05T21:09:53.930Z,84.64
2022-11-05T21:12:23.437Z,84.76
2022-11-05T21:14:52.635Z,84.99
2022-11-05T21:17:21.217Z,85.02
2022-11-05T21:19:49.699Z,84.88
2022-11-05T21:22:18.283Z,84.93
2022-11-05T21:24:46.867Z,85.07
2022-11-05T21:27:15.460Z,84.73
2022-11-05T21:29:43.831Z,84.97
2022-11-05T21:32:12.415Z,85.23
2022-11-05T21:34:40.898Z,85.15
2022-11-05T21:37:09.242Z,85.22
2022-11-05T21:39:37.787Z,85.30
2022-11-05T21:42:06.036Z,85.22
2022-11-05T21:44:34.622Z,85.15
2022-11-05T21:47:04.747Z,85.62
2022-11-05T21:49:34.554Z,85.39
2022-11-05T21:52:21.951Z,85.23
2022-11-05T21:55:09.099Z,85.42
2022-11-05T21:57:56.520Z,85.24
2022-11-05T22:00:25.009Z,85.51
2022-11-05T22:02:53.816Z,85.18
2022-11-05T22:05:22.177Z,85.07
2022-11-05T22:07:50.967Z,85.14
2022-11-05T22:10:19.448Z,85.58
2022-11-05T22:12:47.931Z,85.26
2022-11-05T22:15:16.723Z,85.31
2022-11-05T22:17:47.119Z,85.14
2022-11-05T22:20:16.449Z,85.03
2022-11-05T22:22:45.120Z,84.95
2022-11-05T22:25:14.537Z,84.83
2022-11-05T22:27:44.113Z,84.81
2022-11-05T22:30:12.888Z,84.99
2022-11-05T22:32:41.555Z,85.25
2022-11-05T22:35:10.009Z,85.01
2022-11-05T22:37:38.386Z,85.13
2022-11-05T22:40:07.172Z,84.84
2022-11-05T22:42:35.602Z,85.05
2022-11-05T22:45:04.240Z,85.32
2022-11-05T22:47:32.720Z,85.40
2022-11-05T22:50:01.571Z,85.61
2022-11-05T22:52:30.163Z,85.32
2022-11-05T22:54:58.681Z,85.38
2022-11-05T22:57:27.524Z,85.30
2022-11-05T22:59:56.155Z,85.54
2022-11-05T23:02:24.775Z,85.50
2022-11-05T23:04:53.118Z,85.37
2022-11-05T23:07:40.545Z,85.33
2022-11-05T23:10:27.825Z,85.36
2022-11-05T23:12:56.364Z,85.35
2022-11-05T23:15:43.984Z,85.66
2022-11-05T23:18:30.615Z,85.76
2022-11-05T23:21:21.984Z,85.62
2022-11-05T23:24:06.984Z,85.56
2022-11-05T23:26:52.263Z,85.76
2022-11-05T23:29:21.959Z,85.63
2022-11-05T23:32:09.804Z,85.56
2022-11-05T23:34:39.000Z,85.54
2022-11-05T23:37:26.836Z,85.47
2022-11-05T23:39:55.420Z,85.70
2022-11-05T23:42:42.337Z,85.70
2022-11-05T23:45:29.762Z,85.65
2022-11-05T23:48:16.960Z,85.56
2022-11-05T23:50:47.212Z,85.72
2022-11-05T23:53:15.995Z,85.70
2022-11-05T23:55:44.589Z,85.93
2022-11-05T23:58:13.138Z,85.76
